Weather at Mellen Street Heliport

Public forecast

Using degrees Fahrenheit for public forecast. Weather courtesy of forecast.io.

Closest aviation weather report (METAR) to Mellen Street Heliport

Closest report is Norwood Memorial Airport, 12.0 nm (22.3 km) E. Retrieved 2020/09/19 13:53 UTC (49 minutes ago):

KOWD 191353Z 35009KT 10SM CLR 14/M01 A3030 RMK AO2 SLP261 T01441006

Closest aviation forecast (TAF) to Mellen Street Heliport

Closest forecast is Laurence G Hanscom Field, 17.2 nm (31.8 km) NNE. Retrieved 2020/09/19 12:22 UTC (2 hours ago):

TAF KFDY 191120Z 1912/2012 06005KT P6SM SKC TAF KBED 191120Z 1912/2012 35006KT P6SM SKC FM191400 01010G19KT P6SM SKC FM192300 36005KT P6SM SKC